MSP weather

Minneapolis-St Paul International/Wold-Chamberlain Airport
Minneapolis, Minnesota, United States

Public forecast

Using degrees Fahrenheit for public forecast. Weather courtesy of forecast.io.

METAR (pilot weather report)

Retrieved 2019/02/17 14:12 UTC (5 minutes ago):

KMSP 171412Z 06011G20KT 2SM -SN BKN020 BKN028 OVC033 M08/M11 A3000 RMK AO2 P0000 T10781106

TAF (pilot weather forecast)

Retrieved 2019/02/17 12:36 UTC (2 hours ago):

TAF KMSP 171135Z 1712/1818 07006KT P6SM SCT025 OVC040 TEMPO 1712/1714 BKN025 FM171400 06006KT 4SM -SN BR OVC025 FM171600 05007KT 2SM -SN BR OVC015 FM172300 03008KT 5SM -SN BR OVC030 FM180400 02006KT P6SM BKN045 FM180900 35006KT P6SM BKN120